Cruise inventory

FRV Scotia 1091S_2

Cruise summary report

Cruise Info. 
Ship name (ship code)FRV Scotia (749S)
Cruise identifier1091S_2
Cruise period1991-10-22 — 1991-11-01
StatusCompleted
Port of departureAberdeen, United Kingdom
Port of returnAberdeen, United Kingdom
Objectives1. To recover six current meter moorings in the northern North Sea to the east of Shetland and one current meter mooring on the NW shelf to the west of Orkney.
2. Conduct hydrographic survey north and west of Orkney, and east of Shetland.
3. Conduct ADCP surveys east of Shetland.
4. To complete hydrographic survey lines across the Faroe-Shetland Channel if these were not completed during Scotia 9/91 due to operating constraints.
Chief scientistBill Turrell (Scottish Office Agriculture and Fisheries Department Aberdeen Marine Laboratory)
Cruise reportFRV Scotia 1091S_2 cruise report sc10_91.pdf — access key 'C' (0.08 MB) 
Ocean/sea areas 
GeneralNorth Sea
North East Atlantic Ocean (limit 40W)
SpecificNorth Sea to the east of Shetland and north and west of Orkney
Track chartsFRV Scotia 1091S_2 cruise track — sc10_91track.pdf (00 MB) 
Measurements 
Physical oceanography 
CTD stationsQuantity: number of stations = 77
Subsurface temperature and salinity measurementsDescription: whole track
Current metersQuantity: number of stations = 5
Description: 10 ACMS recovered
Current profiler (eg ADCP)Quantity: activity duration in hours = 25
Moorings, landers, buoys 
Physical oceanography 
Current meters60° 30' 0" N  1° 0' 6" E — recovered 2 ACM 27.10.91
Current meters60° 30' 0" N  0° 15' 6" W — recovered 2 ACM 27.10.91
Current meters60° 30' 0" N  0° 30' 11" W — recovered 2 ACM 28.10.91
Current meters60° 30' 0" N  0° 0' 8" W — recovered 2 ACM 27.10.91
Current meters59° 8' 59" N  3° 55' 59" W — recovered 2 ACM 23.10.91
Data held at BODC 
Series/Profiles 
77  CTD/STD cast
Density of the water column
Electrical conductivity of the water column
Vertical spatial coordinates
Salinity of the water column
Temperature of the water column
Density of the water column
Electrical conductivity of the water column
Vertical spatial coordinates
Salinity of the water column
Temperature of the water column

BODC idDate/TimeLocationDoc.
4123551991-10-23 08:46 59° 8' 56" N  3° 55' 54" W  View metadata report for BODC series reference number 412355
4123671991-10-23 22:28 60° 29' 53" N  0° 0' 28" W  View metadata report for BODC series reference number 412367
4123791991-10-23 23:28 60° 29' 48" N  0° 14' 50" W  View metadata report for BODC series reference number 412379
4123801991-10-24 00:24 60° 29' 49" N  0° 29' 41" W  View metadata report for BODC series reference number 412380
4123921991-10-24 01:36 60° 29' 57" N  0° 44' 52" W  View metadata report for BODC series reference number 412392
4124111991-10-24 02:14 60° 29' 59" N  0° 54' 55" W  View metadata report for BODC series reference number 412411
4124231991-10-25 06:21 60° 30' 6" N  0° 15' 10" E  View metadata report for BODC series reference number 412423
4124351991-10-25 07:21 60° 30' 19" N  0° 29' 43" E  View metadata report for BODC series reference number 412435
4124471991-10-25 08:33 60° 29' 52" N  0° 45' 0" E  View metadata report for BODC series reference number 412447
4124591991-10-25 09:37 60° 29' 52" N  1° 0' 12" E  View metadata report for BODC series reference number 412459
4124601991-10-25 10:25 60° 29' 47" N  1° 15' 31" E  View metadata report for BODC series reference number 412460
4124721991-10-25 11:13 60° 29' 53" N  1° 29' 50" E  View metadata report for BODC series reference number 412472
4124841991-10-25 13:23 60° 49' 58" N  1° 39' 57" E  View metadata report for BODC series reference number 412484
4124961991-10-25 14:19 60° 49' 58" N  1° 20' 3" E  View metadata report for BODC series reference number 412496
4125031991-10-25 15:34 60° 49' 57" N  1° 0' 4" E  View metadata report for BODC series reference number 412503
4125151991-10-25 16:56 60° 49' 57" N  0° 39' 56" E  View metadata report for BODC series reference number 412515
4125271991-10-25 18:04 60° 49' 58" N  0° 19' 50" E  View metadata report for BODC series reference number 412527
4125391991-10-25 19:14 60° 49' 58" N  0° 0' 3" W  View metadata report for BODC series reference number 412539
4125401991-10-25 20:25 60° 49' 56" N  0° 19' 59" W  View metadata report for BODC series reference number 412540
4125521991-10-25 21:13 60° 49' 54" N  0° 30' 2" W  View metadata report for BODC series reference number 412552
4125641991-10-25 21:58 60° 49' 44" N  0° 40' 2" W  View metadata report for BODC series reference number 412564
4125761991-10-25 22:28 60° 50' 8" N  0° 43' 34" W  View metadata report for BODC series reference number 412576
4125881991-10-26 00:44 60° 56' 57" N  1° 1' 31" W  View metadata report for BODC series reference number 412588
4126071991-10-26 01:07 60° 59' 1" N  1° 18' 29" W  View metadata report for BODC series reference number 412607
4126191991-10-26 02:31 61° 1' 2" N  1° 35' 57" W  View metadata report for BODC series reference number 412619
4126201991-10-26 04:32 61° 8' 1" N  2° 9' 57" W  View metadata report for BODC series reference number 412620
4126321991-10-26 12:57 60° 0' 0" N  0° 59' 57" W  View metadata report for BODC series reference number 412632
4126441991-10-26 13:54 59° 59' 53" N  0° 44' 42" W  View metadata report for BODC series reference number 412644
4126561991-10-26 14:47 59° 59' 50" N  0° 30' 1" W  View metadata report for BODC series reference number 412656
4126681991-10-26 15:40 59° 59' 57" N  0° 14' 59" W  View metadata report for BODC series reference number 412668
4126811991-10-26 16:52 60° 0' 2" N  0° 0' 4" W  View metadata report for BODC series reference number 412681
4126931991-10-26 17:49 60° 0' 22" N  0° 14' 54" E  View metadata report for BODC series reference number 412693
4127001991-10-26 18:45 60° 0' 4" N  0° 30' 4" E  View metadata report for BODC series reference number 412700
4127121991-10-26 19:39 60° 0' 3" N  0° 44' 57" E  View metadata report for BODC series reference number 412712
4127241991-10-26 20:34 59° 59' 57" N  1° 0' 12" E  View metadata report for BODC series reference number 412724
4127361991-10-26 21:27 59° 59' 55" N  1° 15' 13" E  View metadata report for BODC series reference number 412736
4127481991-10-26 22:18 59° 59' 49" N  1° 30' 7" E  View metadata report for BODC series reference number 412748
4127611991-10-28 23:14 59° 17' 0" N  2° 13' 55" W  View metadata report for BODC series reference number 412761
4127731991-10-28 23:58 59° 17' 0" N  2° 4' 59" W  View metadata report for BODC series reference number 412773
4127851991-10-29 00:40 59° 16' 56" N  1° 56' 0" W  View metadata report for BODC series reference number 412785
4127971991-10-29 01:17 59° 16' 54" N  1° 47' 55" W  View metadata report for BODC series reference number 412797
4128041991-10-29 01:58 59° 16' 54" N  1° 39' 55" W  View metadata report for BODC series reference number 412804
4128161991-10-30 12:54 57° 40' 23" N  3° 56' 44" W  View metadata report for BODC series reference number 412816
4128281991-10-30 19:12 57° 41' 30" N  2° 29' 59" W  View metadata report for BODC series reference number 412828
4128411991-10-30 19:32 57° 42' 20" N  2° 30' 7" W  View metadata report for BODC series reference number 412841
4128531991-10-30 19:58 57° 43' 55" N  2° 30' 1" W  View metadata report for BODC series reference number 412853
4128651991-10-30 20:33 57° 45' 58" N  2° 29' 55" W  View metadata report for BODC series reference number 412865
4128771991-10-30 21:00 57° 47' 56" N  2° 29' 57" W  View metadata report for BODC series reference number 412877
4128891991-10-30 21:27 57° 49' 57" N  2° 30' 0" W  View metadata report for BODC series reference number 412889
4128901991-10-30 22:07 57° 54' 58" N  2° 29' 58" W  View metadata report for BODC series reference number 412890
4129081991-10-30 22:44 57° 59' 57" N  2° 30' 3" W  View metadata report for BODC series reference number 412908
4129211991-10-30 23:39 58° 2' 24" N  2° 37' 42" W  View metadata report for BODC series reference number 412921
4129331991-10-31 00:16 58° 5' 8" N  2° 45' 0" W  View metadata report for BODC series reference number 412933
4129451991-10-31 00:50 58° 7' 39" N  2° 52' 26" W  View metadata report for BODC series reference number 412945
4129571991-10-31 01:27 58° 10' 9" N  3° 0' 11" W  View metadata report for BODC series reference number 412957
4129691991-10-31 02:00 58° 12' 38" N  3° 7' 25" W  View metadata report for BODC series reference number 412969
4129701991-10-31 02:57 58° 4' 55" N  3° 15' 4" W  View metadata report for BODC series reference number 412970
4129821991-10-31 03:36 58° 0' 0" N  3° 20' 0" W  View metadata report for BODC series reference number 412982
4129941991-10-31 04:15 57° 54' 56" N  3° 25' 1" W  View metadata report for BODC series reference number 412994
4130081991-10-31 04:54 57° 49' 55" N  3° 29' 58" W  View metadata report for BODC series reference number 413008
4130211991-10-31 06:02 57° 42' 7" N  3° 45' 12" W  View metadata report for BODC series reference number 413021
4130331991-10-31 06:38 57° 43' 29" N  3° 36' 52" W  View metadata report for BODC series reference number 413033
4130451991-10-31 07:40 57° 45' 1" N  3° 29' 5" W  View metadata report for BODC series reference number 413045
4130571991-10-31 08:32 57° 47' 45" N  3° 19' 30" W  View metadata report for BODC series reference number 413057
4130691991-10-31 10:34 57° 43' 10" N  2° 55' 22" W  View metadata report for BODC series reference number 413069
4130701991-10-31 10:55 57° 44' 58" N  2° 54' 59" W  View metadata report for BODC series reference number 413070
4130821991-10-31 11:20 57° 47' 1" N  2° 55' 20" W  View metadata report for BODC series reference number 413082
4046811991-10-29 02:48 59° 16' 54" N  1° 29' 40" W  View metadata report for BODC series reference number 404681
4046931991-10-29 03:36 59° 16' 53" N  1° 20' 3" W  View metadata report for BODC series reference number 404693
4047001991-10-29 04:29 59° 16' 50" N  1° 9' 54" W  View metadata report for BODC series reference number 404700
4047121991-10-29 05:34 59° 17' 4" N  1° 0' 15" W  View metadata report for BODC series reference number 404712
4047241991-10-29 07:06 59° 17' 4" N  0° 40' 8" W  View metadata report for BODC series reference number 404724
4047361991-10-29 08:32 59° 17' 5" N  0° 20' 8" W  View metadata report for BODC series reference number 404736
4047481991-10-29 09:59 59° 17' 8" N  0° 0' 15" W  View metadata report for BODC series reference number 404748
4047611991-10-30 12:06 57° 41' 13" N  4° 0' 33" W  View metadata report for BODC series reference number 404761
4047731991-10-30 12:23 57° 41' 10" N  3° 59' 20" W  View metadata report for BODC series reference number 404773
4047851991-10-30 12:38 57° 40' 46" N  3° 58' 13" W  View metadata report for BODC series reference number 404785